Time;durP1;ratioP1;P1;durP2;ratioP2;P2;SDS_P1;SDS_P2;PMS_P1;PMS_P2;Temp;Humidity;BMP_temperature;BMP_pressure;BME280_temperature;BME280_humidity;BME280_pressure;Samples;Min_cycle;Max_cycle;Signal;HPM_P1;HPM_P2
2023/05/12 00:01:33;;;;;;;;;;;;;;;11.83;100.00;101587.72;4989100;28;20190;-71
2023/05/12 00:03:58;;;;;;;;;;;;;;;11.88;100.00;101584.69;4986381;28;19980;-71
2023/05/12 00:06:23;;;;;;;;;;;;;;;11.87;100.00;101582.97;4991728;28;20545;-71
2023/05/12 00:08:49;;;;;;;;;;;;;;;11.80;100.00;101579.84;4991723;28;20311;-71
2023/05/12 00:11:14;;;;;;;;;;;;;;;11.78;100.00;101581.78;5004794;28;19976;-71
2023/05/12 00:13:40;;;;;;;;;;;;;;;11.76;100.00;101583.72;4989846;28;20220;-71
2023/05/12 00:16:05;;;;;;;;;;;;;;;11.69;100.00;101580.63;4991192;28;20188;-71
2023/05/12 00:18:30;;;;;;;;;;;;;;;11.75;100.00;101583.84;4992022;28;19953;-71
2023/05/12 00:20:55;;;;;;;;;;;;;;;11.76;100.00;101583.72;4991391;28;19925;-71
2023/05/12 00:23:21;;;;;;;;;;;;;;;11.74;100.00;101582.13;4988484;28;19921;-71
2023/05/12 00:25:46;;;;;;;;;;;;;;;11.72;100.00;101586.75;5007516;28;19926;-70
2023/05/12 00:28:11;;;;;;;;;;;;;;;11.64;100.00;101590.84;4994888;28;19928;-71
2023/05/12 00:30:37;;;;;;;;;;;;;;;11.66;100.00;101585.34;4992657;28;20292;-70
2023/05/12 00:33:02;;;;;;;;;;;;;;;11.63;100.00;101582.91;4990750;28;20348;-71
2023/05/12 00:35:27;;;;;;;;;;;;;;;11.64;100.00;101580.09;4990777;28;20353;-71
2023/05/12 00:37:52;;;;;;;;;;;;;;;11.61;100.00;101576.75;4989813;28;19928;-70
2023/05/12 00:40:18;;;;;;;;;;;;;;;11.54;100.00;101576.31;4992252;28;19922;-70
2023/05/12 00:42:43;;;;;;;;;;;;;;;11.57;100.00;101577.94;4990956;28;19949;-71
2023/05/12 00:45:09;;;;;;;;;;;;;;;11.57;100.00;101573.41;4999716;28;20276;-70
2023/05/12 00:47:34;;;;;;;;;;;;;;;11.49;100.00;101573.97;4996493;28;19928;-71
2023/05/12 00:49:59;;;;;;;;;;;;;;;11.45;100.00;101576.97;4993875;28;20020;-71
2023/05/12 00:52:25;;;;;;;;;;;;;;;11.42;100.00;101577.19;5012433;28;20280;-71
2023/05/12 00:54:50;;;;;;;;;;;;;;;11.34;100.00;101569.66;4997798;28;19921;-71
2023/05/12 00:57:16;;;;;;;;;;;;;;;11.39;100.00;101573.75;5010153;28;20296;-71
2023/05/12 00:59:41;;;;;;;;;;;;;;;11.31;100.00;101562.66;4997096;28;19925;-71
2023/05/12 01:02:06;;;;;;;;;;;;;;;11.29;100.00;101561.03;5011124;28;19925;-72
2023/05/12 01:04:32;;;;;;;;;;;;;;;11.29;100.00;101572.66;5009097;28;20738;-72
2023/05/12 01:06:59;;;;;;;;;;;;;;;11.29;100.00;101561.03;4995375;28;20364;-72
2023/05/12 01:09:25;;;;;;;;;;;;;;;11.18;100.00;101556.41;4995588;28;19932;-71
2023/05/12 01:11:50;;;;;;;;;;;;;;;11.22;100.00;101558.78;4995411;28;19921;-72
2023/05/12 01:14:15;;;;;;;;;;;;;;;11.18;100.00;101564.47;4996025;28;19924;-71
2023/05/12 01:16:45;;;;;;;;;;;;;;;11.24;100.00;101551.47;4995957;28;19925;-71
2023/05/12 01:19:28;;;;;;;;;;;;;;;11.18;100.00;101559.94;4994776;28;19964;-72
2023/05/12 01:21:53;;;;;;;;;;;;;;;11.23;100.00;101556.97;4995768;28;19921;-71
2023/05/12 01:24:18;;;;;;;;;;;;;;;11.20;100.00;101552.66;4995446;28;19948;-72
2023/05/12 01:26:44;;;;;;;;;;;;;;;11.24;100.00;101547.94;4995731;28;19971;-71
2023/05/12 01:29:09;;;;;;;;;;;;;;;11.24;100.00;101550.63;4995361;28;20028;-71
2023/05/12 01:31:34;;;;;;;;;;;;;;;11.13;100.00;101550.50;4995659;28;20384;-70
2023/05/12 01:33:59;;;;;;;;;;;;;;;11.19;100.00;101548.22;5011163;28;20319;-71
2023/05/12 01:36:25;;;;;;;;;;;;;;;11.23;100.00;101541.69;4995714;28;19960;-70
2023/05/12 01:38:50;;;;;;;;;;;;;;;11.23;100.00;101536.31;5012857;28;20060;-71
2023/05/12 01:41:15;;;;;;;;;;;;;;;11.27;100.00;101542.31;4994356;28;19928;-71
2023/05/12 01:43:41;;;;;;;;;;;;;;;11.26;100.00;101545.97;4993325;28;20019;-71
2023/05/12 01:46:06;;;;;;;;;;;;;;;11.23;100.00;101540.84;4996051;28;19925;-71
2023/05/12 01:48:31;;;;;;;;;;;;;;;11.22;100.00;101536.44;4994784;28;19918;-71
2023/05/12 01:50:58;;;;;;;;;;;;;;;11.21;100.00;101540.94;4993008;28;19929;-71
2023/05/12 01:53:23;;;;;;;;;;;;;;;11.20;100.00;101533.84;4997354;28;19921;-71
2023/05/12 01:55:48;;;;;;;;;;;;;;;11.16;100.00;101531.47;4993515;28;20391;-71
2023/05/12 01:58:14;;;;;;;;;;;;;;;11.16;100.00;101536.84;5006567;28;20400;-71
2023/05/12 02:00:39;;;;;;;;;;;;;;;11.14;100.00;101533.41;4993745;28;20424;-71
2023/05/12 02:03:04;;;;;;;;;;;;;;;11.17;100.00;101525.13;4990609;28;19922;-71
2023/05/12 02:05:30;;;;;;;;;;;;;;;11.10;100.00;101530.94;4993775;28;19936;-70
2023/05/12 02:07:55;;;;;;;;;;;;;;;11.12;100.00;101525.47;4993855;28;20000;-71
2023/05/12 02:10:21;;;;;;;;;;;;;;;11.07;100.00;101525.75;4993917;28;19921;-71
2023/05/12 02:12:46;;;;;;;;;;;;;;;11.10;100.00;101530.94;4989942;28;19969;-71
2023/05/12 02:15:11;;;;;;;;;;;;;;;11.08;100.00;101521.25;4994292;28;19921;-71
2023/05/12 02:17:36;;;;;;;;;;;;;;;11.06;100.00;101525.88;4993273;28;19932;-72
2023/05/12 02:20:02;;;;;;;;;;;;;;;11.05;100.00;101525.00;4995973;28;19921;-71
2023/05/12 02:22:28;;;;;;;;;;;;;;;11.00;100.00;101524.44;5009836;28;19976;-71
2023/05/12 02:24:53;;;;;;;;;;;;;;;11.04;100.00;101517.06;4995269;28;20496;-71
2023/05/12 02:27:18;;;;;;;;;;;;;;;10.99;100.00;101525.41;4995881;28;21957;-70
2023/05/12 02:29:43;;;;;;;;;;;;;;;11.00;100.00;101524.44;4990913;28;19957;-71
2023/05/12 02:32:09;;;;;;;;;;;;;;;11.07;100.00;101512.31;4989551;28;19921;-71
2023/05/12 02:34:34;;;;;;;;;;;;;;;11.06;100.00;101509.75;4993846;28;19928;-71
2023/05/12 02:36:59;;;;;;;;;;;;;;;11.00;100.00;101502.09;4995924;28;20012;-70
2023/05/12 02:39:24;;;;;;;;;;;;;;;11.01;100.00;101501.16;5009426;28;19921;-71
2023/05/12 02:41:50;;;;;;;;;;;;;;;11.01;100.00;101496.63;4994417;28;19921;-70
2023/05/12 02:44:16;;;;;;;;;;;;;;;10.92;100.00;101494.59;4993935;28;19937;-70
2023/05/12 02:46:41;;;;;;;;;;;;;;;10.94;100.00;101496.19;4993114;28;19921;-70
2023/05/12 02:49:07;;;;;;;;;;;;;;;10.98;100.00;101498.66;4990996;28;20313;-69
2023/05/12 02:51:32;;;;;;;;;;;;;;;11.00;100.00;101494.91;4993269;28;20280;-69
2023/05/12 02:53:57;;;;;;;;;;;;;;;11.00;100.00;101497.59;4993142;28;19925;-69
2023/05/12 02:56:23;;;;;;;;;;;;;;;11.01;100.00;101493.94;4994899;28;19969;-70
2023/05/12 02:58:48;;;;;;;;;;;;;;;11.02;100.00;101500.19;4987984;28;20024;-70
2023/05/12 03:01:13;;;;;;;;;;;;;;;11.07;100.00;101488.13;4994856;28;19928;-71
2023/05/12 03:03:38;;;;;;;;;;;;;;;11.05;100.00;101483.84;4991546;28;19922;-70
2023/05/12 03:06:04;;;;;;;;;;;;;;;11.02;100.00;101490.28;4998688;28;19976;-71
2023/05/12 03:08:29;;;;;;;;;;;;;;;11.03;100.00;101492.00;4992403;28;20384;-70
2023/05/12 03:10:54;;;;;;;;;;;;;;;11.07;100.00;101495.34;4995840;28;19964;-71
2023/05/12 03:13:19;;;;;;;;;;;;;;;11.12;100.00;101492.34;4994157;28;19998;-70
2023/05/12 03:15:45;;;;;;;;;;;;;;;11.17;100.00;101492.88;4995089;28;19921;-71
2023/05/12 03:18:10;;;;;;;;;;;;;;;11.05;100.00;101490.06;4994475;28;19991;-70
2023/05/12 03:20:35;;;;;;;;;;;;;;;11.07;100.00;101493.50;4995322;28;20000;-71
2023/05/12 03:23:00;;;;;;;;;;;;;;;11.02;100.00;101490.28;4989944;28;19929;-71
2023/05/12 03:25:25;;;;;;;;;;;;;;;11.12;100.00;101485.16;4991189;28;20339;-71
2023/05/12 03:27:51;;;;;;;;;;;;;;;11.12;100.00;101484.28;4988777;28;20403;-70
2023/05/12 03:30:16;;;;;;;;;;;;;;;11.07;100.00;101480.06;4994324;28;20410;-69
2023/05/12 03:32:43;;;;;;;;;;;;;;;11.14;100.00;101482.34;4988970;28;20456;-69
2023/05/12 03:35:08;;;;;;;;;;;;;;;11.21;100.00;101479.09;4996380;28;19947;-67
2023/05/12 03:37:33;;;;;;;;;;;;;;;11.12;100.00;101478.91;4989373;28;20357;-70
2023/05/12 03:39:58;;;;;;;;;;;;;;;11.16;100.00;101478.56;4993231;28;19925;-70
2023/05/12 03:42:23;;;;;;;;;;;;;;;11.19;100.00;101477.50;4991183;28;20382;-70
2023/05/12 03:44:52;;;;;;;;;;;;;;;11.20;100.00;101472.00;4994298;28;19973;-72
2023/05/12 03:47:17;;;;;;;;;;;;;;;11.24;100.00;101475.38;4989987;28;19968;-68
2023/05/12 03:49:42;;;;;;;;;;;;;;;11.27;100.00;101475.13;5010521;28;19933;-70
2023/05/12 03:52:07;;;;;;;;;;;;;;;11.24;100.00;101478.91;5011947;28;20294;-69
2023/05/12 03:54:33;;;;;;;;;;;;;;;11.24;100.00;101476.22;4995473;28;19922;-70
2023/05/12 03:56:58;;;;;;;;;;;;;;;11.29;100.00;101473.19;4989531;28;20816;-70
2023/05/12 03:59:23;;;;;;;;;;;;;;;11.22;100.00;101475.44;4989192;28;20299;-69
2023/05/12 04:01:48;;;;;;;;;;;;;;;11.21;100.00;101473.72;4990269;28;20024;-70
2023/05/12 04:04:14;;;;;;;;;;;;;;;11.24;100.00;101473.53;4987717;28;19976;-70
2023/05/12 04:06:39;;;;;;;;;;;;;;;11.28;100.00;101476.00;4990310;28;19930;-70
2023/05/12 04:09:04;;;;;;;;;;;;;;;11.30;100.00;101474.06;4990136;28;19959;-70
2023/05/12 04:11:29;;;;;;;;;;;;;;;11.29;100.00;101470.50;4992264;28;20024;-67
2023/05/12 04:13:54;;;;;;;;;;;;;;;11.29;100.00;101475.88;4990516;28;20399;-69
2023/05/12 04:16:20;;;;;;;;;;;;;;;11.35;100.00;101469.22;4995842;28;20449;-70
2023/05/12 04:18:45;;;;;;;;;;;;;;;11.34;100.00;101478.25;4997830;28;20363;-70
2023/05/12 04:21:10;;;;;;;;;;;;;;;11.40;100.00;101473.28;4979662;28;19975;-70
2023/05/12 04:23:35;;;;;;;;;;;;;;;11.39;100.00;101478.75;4992177;28;19922;-69
2023/05/12 04:26:04;;;;;;;;;;;;;;;11.35;100.00;101472.75;4999443;28;20310;-71
2023/05/12 04:28:29;;;;;;;;;;;;;;;11.44;100.00;101484.69;4997195;28;20015;-69
2023/05/12 04:30:54;;;;;;;;;;;;;;;11.48;100.00;101475.44;4998338;28;20383;-70
2023/05/12 04:33:19;;;;;;;;;;;;;;;11.50;100.00;101468.13;4997762;28;20511;-72
2023/05/12 04:35:45;;;;;;;;;;;;;;;11.51;100.00;101477.91;4998928;28;20284;-70
2023/05/12 04:38:10;;;;;;;;;;;;;;;11.56;100.00;101482.94;4997372;28;20492;-70
2023/05/12 04:40:36;;;;;;;;;;;;;;;11.57;100.00;101479.28;4999003;28;19921;-71
2023/05/12 04:43:01;;;;;;;;;;;;;;;11.64;100.00;101485.94;4997919;28;19968;-70
2023/05/12 04:45:26;;;;;;;;;;;;;;;11.66;100.00;101478.63;4999620;28;19952;-70
2023/05/12 04:47:51;;;;;;;;;;;;;;;11.68;100.00;101482.06;4997504;28;19921;-70
2023/05/12 04:50:16;;;;;;;;;;;;;;;11.70;100.00;101487.31;5011939;28;20031;-69
2023/05/12 04:52:42;;;;;;;;;;;;;;;11.78;100.00;101490.31;4994456;28;20444;-69
2023/05/12 04:55:07;;;;;;;;;;;;;;;11.79;100.00;101478.59;4999255;28;19925;-68
2023/05/12 04:57:32;;;;;;;;;;;;;;;11.84;100.00;101487.19;5012772;28;19980;-69
2023/05/12 04:59:58;;;;;;;;;;;;;;;11.85;100.00;101488.91;5015974;28;20363;-70
2023/05/12 05:02:23;;;;;;;;;;;;;;;11.82;100.00;101481.06;4993096;28;20395;-68
2023/05/12 05:04:48;;;;;;;;;;;;;;;11.97;100.00;101500.59;4996565;28;19983;-69
2023/05/12 05:07:14;;;;;;;;;;;;;;;12.07;100.00;101503.50;4999184;28;19925;-69
2023/05/12 05:09:39;;;;;;;;;;;;;;;12.13;100.00;101508.44;4998263;28;19917;-70
2023/05/12 05:12:05;;;;;;;;;;;;;;;12.13;100.00;101512.97;4997957;28;19975;-69
2023/05/12 05:14:30;;;;;;;;;;;;;;;12.15;100.00;101519.97;4997734;28;19921;-69
2023/05/12 05:16:56;;;;;;;;;;;;;;;12.19;100.00;101519.72;4995502;28;19983;-69
2023/05/12 05:19:21;;;;;;;;;;;;;;;12.27;100.00;101520.88;4996800;28;19972;-69
2023/05/12 05:21:47;;;;;;;;;;;;;;;12.32;100.00;101527.75;4993642;28;20287;-70
2023/05/12 05:24:13;;;;;;;;;;;;;;;12.37;100.00;101521.06;4990907;28;20289;-68
2023/05/12 05:26:39;;;;;;;;;;;;;;;12.40;100.00;101530.72;4995814;28;20051;-68
2023/05/12 05:29:05;;;;;;;;;;;;;;;12.47;100.00;101541.91;5012293;28;20340;-70
2023/05/12 05:31:30;;;;;;;;;;;;;;;12.40;100.00;101538.81;5013751;28;20374;-69
2023/05/12 05:33:55;;;;;;;;;;;;;;;12.45;100.00;101540.19;5010847;28;20032;-69
2023/05/12 05:36:21;;;;;;;;;;;;;;;12.49;100.00;101542.66;4998226;28;19971;-69
2023/05/12 05:38:46;;;;;;;;;;;;;;;12.30;100.00;101526.06;5014462;28;20040;-69
2023/05/12 05:41:12;;;;;;;;;;;;;;;12.51;100.00;101556.84;4996206;28;19927;-70
2023/05/12 05:43:37;;;;;;;;;;;;;;;12.55;100.00;101555.66;4998289;28;19925;-71
2023/05/12 05:46:02;;;;;;;;;;;;;;;12.63;100.00;101552.38;4996295;28;19956;-70
2023/05/12 05:48:27;;;;;;;;;;;;;;;12.69;100.00;101555.50;4989097;28;19922;-70
2023/05/12 05:50:53;;;;;;;;;;;;;;;12.64;100.00;101562.19;4995656;28;19993;-69
2023/05/12 05:53:18;;;;;;;;;;;;;;;12.74;100.00;101564.06;4995697;28;19975;-70
2023/05/12 05:55:44;;;;;;;;;;;;;;;12.84;100.00;101560.69;4995783;28;19921;-69
2023/05/12 05:58:09;;;;;;;;;;;;;;;13.00;100.00;101566.59;4991557;28;20267;-70
2023/05/12 06:00:34;;;;;;;;;;;;;;;13.02;100.00;101569.19;4991018;28;20376;-70
2023/05/12 06:03:00;;;;;;;;;;;;;;;13.07;100.00;101572.41;4994864;28;19976;-70
2023/05/12 06:05:25;;;;;;;;;;;;;;;13.11;100.00;101573.03;5000977;28;19933;-69
2023/05/12 06:07:50;;;;;;;;;;;;;;;13.12;100.00;101578.28;4999967;28;20421;-69
2023/05/12 06:10:15;;;;;;;;;;;;;;;13.13;100.00;101582.69;4994749;28;19929;-70
2023/05/12 06:12:42;;;;;;;;;;;;;;;13.24;100.00;101586.41;4989006;28;19995;-70
2023/05/12 06:15:07;;;;;;;;;;;;;;;13.25;100.00;101586.28;4995347;28;19936;-69
2023/05/12 06:17:32;;;;;;;;;;;;;;;13.23;100.00;101593.66;4994963;28;19921;-70
2023/05/12 06:19:57;;;;;;;;;;;;;;;13.15;100.00;101588.84;4992995;28;19944;-71
2023/05/12 06:22:23;;;;;;;;;;;;;;;13.25;100.00;101590.84;5011601;28;19926;-71
2023/05/12 06:24:49;;;;;;;;;;;;;;;13.24;100.00;101598.09;4997916;28;19994;-71
2023/05/12 06:27:14;;;;;;;;;;;;;;;13.29;100.00;101601.25;4993731;28;19928;-71
2023/05/12 06:29:39;;;;;;;;;;;;;;;13.26;100.00;101606.03;4995106;28;20328;-69
2023/05/12 06:32:04;;;;;;;;;;;;;;;13.23;100.00;101588.28;4992336;28;19917;-70
2023/05/12 06:34:30;;;;;;;;;;;;;;;13.35;100.00;101606.19;4990444;28;19953;-71
2023/05/12 06:36:55;;;;;;;;;;;;;;;13.42;100.00;101605.75;4991939;28;19941;-70
2023/05/12 06:39:20;;;;;;;;;;;;;;;13.49;100.00;101612.38;4994852;28;20028;-70
2023/05/12 06:41:45;;;;;;;;;;;;;;;13.65;100.00;101610.19;4989304;28;19921;-71
2023/05/12 06:44:11;;;;;;;;;;;;;;;13.81;100.00;101617.06;4989683;28;19926;-70
2023/05/12 06:46:39;;;;;;;;;;;;;;;13.94;100.00;101619.63;4989486;28;20312;-70
2023/05/12 06:49:04;;;;;;;;;;;;;;;14.22;100.00;101620.13;4988137;28;19932;-71
2023/05/12 06:51:30;;;;;;;;;;;;;;;14.30;100.00;101620.38;4988117;28;20319;-71
2023/05/12 06:53:55;;;;;;;;;;;;;;;14.22;100.00;101629.09;4989927;28;19925;-71
2023/05/12 06:56:22;;;;;;;;;;;;;;;14.29;100.00;101625.91;5002272;28;19969;-71
2023/05/12 06:58:48;;;;;;;;;;;;;;;14.56;100.00;101630.88;4986938;28;19941;-69
2023/05/12 07:01:13;;;;;;;;;;;;;;;14.40;100.00;101632.16;4988063;28;19968;-69
2023/05/12 07:03:38;;;;;;;;;;;;;;;14.35;100.00;101630.78;4988565;28;20014;-71
2023/05/12 07:06:03;;;;;;;;;;;;;;;14.33;100.00;101635.44;4987171;28;20570;-69
2023/05/12 07:08:28;;;;;;;;;;;;;;;14.39;100.00;101633.13;4986654;28;20391;-69
2023/05/12 07:10:54;;;;;;;;;;;;;;;14.39;100.00;101635.84;4989550;28;20454;-70
2023/05/12 07:13:19;;;;;;;;;;;;;;;14.37;100.00;101629.69;4992215;28;20446;-71
2023/05/12 07:15:44;;;;;;;;;;;;;;;14.43;100.00;101633.72;5002863;28;19925;-70
2023/05/12 07:18:09;;;;;;;;;;;;;;;14.80;100.00;101635.25;5001140;28;19928;-71
2023/05/12 07:20:35;;;;;;;;;;;;;;;15.01;100.00;101632.63;4998078;28;19932;-69
2023/05/12 07:23:00;;;;;;;;;;;;;;;14.98;100.00;101622.91;4995286;28;19968;-71
2023/05/12 07:25:27;;;;;;;;;;;;;;;15.30;100.00;101629.28;4998716;28;19948;-71
2023/05/12 07:27:52;;;;;;;;;;;;;;;15.34;100.00;101624.47;4994428;28;20347;-71
2023/05/12 07:30:17;;;;;;;;;;;;;;;15.37;100.00;101627.75;4990366;28;20674;-70
2023/05/12 07:32:42;;;;;;;;;;;;;;;15.60;100.00;101638.47;4992631;28;20245;-70
2023/05/12 07:35:08;;;;;;;;;;;;;;;15.66;100.00;101624.38;4992261;28;19932;-69
2023/05/12 07:37:33;;;;;;;;;;;;;;;15.62;100.00;101625.66;4992633;28;19955;-69
2023/05/12 07:39:58;;;;;;;;;;;;;;;15.75;100.00;101617.31;4988021;28;19925;-70
2023/05/12 07:42:24;;;;;;;;;;;;;;;15.71;100.00;101624.00;4989606;28;19921;-70
2023/05/12 07:44:49;;;;;;;;;;;;;;;15.95;100.00;101625.56;4987263;28;19965;-70
2023/05/12 07:47:14;;;;;;;;;;;;;;;16.12;100.00;101629.47;4994349;28;20031;-70
2023/05/12 07:49:39;;;;;;;;;;;;;;;16.12;100.00;101633.03;4994606;28;20376;-71
2023/05/12 07:52:05;;;;;;;;;;;;;;;16.15;100.00;101627.34;4988227;28;19994;-69
2023/05/12 07:54:31;;;;;;;;;;;;;;;16.11;100.00;101630.47;4992834;28;19921;-69
2023/05/12 07:56:56;;;;;;;;;;;;;;;16.33;100.00;101629.38;4993152;28;19928;-70
2023/05/12 07:59:21;;;;;;;;;;;;;;;16.29;100.00;101633.38;4989451;28;19999;-71
2023/05/12 08:01:46;;;;;;;;;;;;;;;16.50;100.00;101636.00;4992396;28;19983;-71
2023/05/12 08:04:11;;;;;;;;;;;;;;;16.56;100.00;101640.00;4993056;28;20439;-71
2023/05/12 08:06:37;;;;;;;;;;;;;;;16.60;100.00;101647.72;4996166;28;20410;-71
2023/05/12 08:09:02;;;;;;;;;;;;;;;16.59;100.00;101640.59;4995585;28;20369;-71
2023/05/12 08:11:28;;;;;;;;;;;;;;;16.43;100.00;101651.09;4994007;28;19983;-71
2023/05/12 08:13:53;;;;;;;;;;;;;;;16.50;100.00;101649.56;4993566;28;19928;-71
2023/05/12 08:16:18;;;;;;;;;;;;;;;16.51;100.00;101651.28;5011673;28;19971;-71
2023/05/12 08:18:43;;;;;;;;;;;;;;;16.55;100.00;101658.13;4992327;28;19925;-71
2023/05/12 08:21:09;;;;;;;;;;;;;;;16.55;100.00;101662.72;4991600;28;20278;-71
2023/05/12 08:23:36;;;;;;;;;;;;;;;16.68;100.00;101660.59;4994481;28;20028;-71
2023/05/12 08:26:01;;;;;;;;;;;;;;;16.77;100.00;101667.88;5009942;28;19945;-71
2023/05/12 08:28:26;;;;;;;;;;;;;;;16.94;100.00;101666.34;5005086;28;20476;-71
2023/05/12 08:30:52;;;;;;;;;;;;;;;16.92;100.00;101667.47;4993731;28;20028;-71
2023/05/12 08:33:17;;;;;;;;;;;;;;;17.12;100.00;101660.25;4991158;28;19925;-72
2023/05/12 08:35:42;;;;;;;;;;;;;;;17.30;100.00;101659.50;4991120;28;19925;-71
2023/05/12 08:38:07;;;;;;;;;;;;;;;17.31;100.00;101669.38;4993305;28;20346;-71
2023/05/12 08:40:33;;;;;;;;;;;;;;;17.31;100.00;101662.09;4995693;28;20387;-71
2023/05/12 08:43:06;;;;;;;;;;;;;;;17.49;100.00;101667.63;4989841;28;20447;-71
2023/05/12 08:45:34;;;;;;;;;;;;;;;17.38;100.00;101673.22;4994994;28;20292;-69
2023/05/12 08:48:00;;;;;;;;;;;;;;;17.63;100.00;101677.19;5009147;28;19969;-72
2023/05/12 08:50:25;;;;;;;;;;;;;;;17.25;100.00;101670.81;5008080;28;20408;-70
2023/05/12 08:52:51;;;;;;;;;;;;;;;16.94;100.00;101679.91;4987375;28;19921;-71
2023/05/12 08:55:16;;;;;;;;;;;;;;;17.24;100.00;101679.94;4994508;28;19921;-70
2023/05/12 08:57:44;;;;;;;;;;;;;;;16.96;100.00;101689.75;5007421;28;19921;-69
2023/05/12 09:00:09;;;;;;;;;;;;;;;17.00;100.00;101686.66;5007037;28;19921;-71
2023/05/12 09:02:35;;;;;;;;;;;;;;;17.11;100.00;101684.78;4991253;28;19921;-72
2023/05/12 09:05:00;;;;;;;;;;;;;;;17.26;100.00;101685.22;5011440;28;20016;-70
2023/05/12 09:07:26;;;;;;;;;;;;;;;17.24;100.00;101688.09;5011187;28;19957;-69
2023/05/12 09:09:53;;;;;;;;;;;;;;;16.92;100.00;101686.47;5011447;28;19965;-70
2023/05/12 09:12:20;;;;;;;;;;;;;;;17.17;100.00;101692.34;4994398;28;20052;-71
2023/05/12 09:14:45;;;;;;;;;;;;;;;16.93;100.00;101696.31;4999464;28;19960;-71
2023/05/12 09:17:11;;;;;;;;;;;;;;;17.13;100.00;101689.09;4997574;28;20063;-71
2023/05/12 09:19:36;;;;;;;;;;;;;;;17.17;100.00;101685.09;4998140;28;20418;-70
2023/05/12 09:22:02;;;;;;;;;;;;;;;17.28;100.00;101694.94;4994911;28;19967;-73
2023/05/12 09:24:36;;;;;;;;;;;;;;;17.20;100.00;101700.22;4994333;28;20277;-71
2023/05/12 09:27:02;;;;;;;;;;;;;;;17.41;100.00;101688.34;5009940;28;19925;-71
2023/05/12 09:29:28;;;;;;;;;;;;;;;17.37;100.00;101688.63;4993230;28;20621;-70
2023/05/12 09:31:53;;;;;;;;;;;;;;;17.38;100.00;101692.22;5010073;28;19969;-70
2023/05/12 09:34:19;;;;;;;;;;;;;;;17.52;100.00;101691.78;5007186;28;19955;-69
2023/05/12 09:36:47;;;;;;;;;;;;;;;17.69;100.00;101692.91;4993588;28;20253;-70
2023/05/12 09:39:12;;;;;;;;;;;;;;;18.08;100.00;101694.69;4998290;28;20324;-72
2023/05/12 09:41:41;;;;;;;;;;;;;;;17.71;100.00;101702.75;4997170;28;20404;-71
2023/05/12 09:44:10;;;;;;;;;;;;;;;17.51;100.00;101706.34;5009134;28;20354;-71
2023/05/12 09:46:35;;;;;;;;;;;;;;;17.69;100.00;101706.47;4995265;28;20269;-71
2023/05/12 09:49:02;;;;;;;;;;;;;;;17.95;100.00;101700.41;5013823;28;19952;-70
2023/05/12 09:51:28;;;;;;;;;;;;;;;18.11;100.00;101713.41;4993847;28;20025;-71
2023/05/12 09:53:53;;;;;;;;;;;;;;;18.06;100.00;101707.56;4994549;28;19921;-70
2023/05/12 09:56:18;;;;;;;;;;;;;;;18.28;100.00;101710.91;5009106;28;19948;-70
2023/05/12 09:58:44;;;;;;;;;;;;;;;18.19;100.00;101711.81;4992750;28;19943;-70
2023/05/12 10:01:14;;;;;;;;;;;;;;;18.44;100.00;101704.84;4996005;28;20372;-69
2023/05/12 10:03:42;;;;;;;;;;;;;;;18.64;100.00;101716.47;4998836;28;20004;-70
2023/05/12 10:06:13;;;;;;;;;;;;;;;18.86;100.00;101717.06;4999074;28;19926;-69
2023/05/12 10:08:50;;;;;;;;;;;;;;;18.70;89.49;101715.00;4982377;28;19932;-70
2023/05/12 10:11:15;;;;;;;;;;;;;;;18.48;92.42;101702.69;4997768;28;19967;-69
2023/05/12 10:13:40;;;;;;;;;;;;;;;18.58;90.84;101717.94;4988740;28;19929;-70
2023/05/12 10:16:06;;;;;;;;;;;;;;;18.67;96.65;101724.34;5008516;28;19932;-71
2023/05/12 10:18:32;;;;;;;;;;;;;;;18.95;89.88;101713.47;4995081;28;20827;-72
2023/05/12 10:20:57;;;;;;;;;;;;;;;18.64;92.08;101715.63;4995441;28;20459;-70
2023/05/12 10:23:22;;;;;;;;;;;;;;;19.08;90.33;101714.94;4995982;28;19921;-68
2023/05/12 10:25:48;;;;;;;;;;;;;;;19.26;89.23;101721.25;5011435;28;20342;-70
2023/05/12 10:28:13;;;;;;;;;;;;;;;19.47;92.36;101717.34;4990586;28;20048;-69
2023/05/12 10:30:38;;;;;;;;;;;;;;;19.99;83.50;101718.44;4995094;28;20394;-71
2023/05/12 10:33:04;;;;;;;;;;;;;;;20.38;85.13;101718.84;5005942;28;20431;-70
2023/05/12 10:35:32;;;;;;;;;;;;;;;20.13;78.56;101719.72;4996590;28;20162;-70
2023/05/12 10:38:08;;;;;;;;;;;;;;;19.87;75.37;101732.28;4994163;28;20498;-70
2023/05/12 10:40:33;;;;;;;;;;;;;;;20.10;77.55;101740.00;5008598;28;20395;-70
2023/05/12 10:43:00;;;;;;;;;;;;;;;20.12;79.85;101716.16;5007165;28;19975;-70
2023/05/12 10:45:25;;;;;;;;;;;;;;;19.74;70.19;101729.16;4992425;28;19925;-74
2023/05/12 10:47:50;;;;;;;;;;;;;;;20.41;82.97;101730.44;4993754;28;19965;-70
2023/05/12 10:50:25;;;;;;;;;;;;;;;20.91;67.41;101726.91;5011775;28;19928;-72
2023/05/12 10:52:54;;;;;;;;;;;;;;;21.06;71.53;101726.25;5008316;28;20428;-70
2023/05/12 10:55:29;;;;;;;;;;;;;;;20.60;73.12;101732.06;4997967;28;20032;-70
2023/05/12 10:57:54;;;;;;;;;;;;;;;21.23;63.09;101724.41;5016821;28;20016;-71
2023/05/12 11:00:21;;;;;;;;;;;;;;;21.48;60.43;101729.88;5019057;28;20673;-70
2023/05/12 11:02:49;;;;;;;;;;;;;;;21.54;74.58;101726.47;5015796;28;19922;-70
2023/05/12 11:05:15;;;;;;;;;;;;;;;21.89;64.76;101732.66;4994547;28;19996;-70
2023/05/12 11:07:45;;;;;;;;;;;;;;;22.28;67.11;101720.91;4997541;28;20450;-70
2023/05/12 11:10:10;;;;;;;;;;;;;;;22.35;78.25;101726.56;5021124;28;20242;-70
2023/05/12 11:12:36;;;;;;;;;;;;;;;22.08;68.14;101727.81;4999835;28;20571;-69
2023/05/12 11:15:02;;;;;;;;;;;;;;;21.76;59.91;101726.84;5021471;28;20873;-71
2023/05/12 11:17:27;;;;;;;;;;;;;;;22.07;67.79;101724.25;5004627;28;19929;-70
2023/05/12 11:19:53;;;;;;;;;;;;;;;22.53;63.12;101726.31;5004722;28;19921;-70
2023/05/12 11:22:20;;;;;;;;;;;;;;;23.09;56.23;101733.56;5000038;28;19937;-70
2023/05/12 11:24:46;;;;;;;;;;;;;;;23.23;64.28;101728.38;5020100;28;19932;-70
2023/05/12 11:27:12;;;;;;;;;;;;;;;22.62;57.43;101725.28;5001565;28;19926;-69
2023/05/12 11:29:40;;;;;;;;;;;;;;;23.26;59.01;101734.34;5004224;28;19939;-70
2023/05/12 11:32:05;;;;;;;;;;;;;;;22.67;62.62;101732.09;4998716;28;19917;-69
2023/05/12 11:34:31;;;;;;;;;;;;;;;22.60;58.24;101737.44;4980555;28;19925;-70
2023/05/12 11:36:56;;;;;;;;;;;;;;;23.22;57.12;101741.22;5019292;28;20372;-70
2023/05/12 11:39:21;;;;;;;;;;;;;;;23.66;56.96;101739.69;4996264;28;20360;-73
2023/05/12 11:41:47;;;;;;;;;;;;;;;23.47;55.91;101738.28;4997692;28;20343;-69
2023/05/12 11:44:24;;;;;;;;;;;;;;;23.92;61.92;101733.78;4999283;28;19936;-70
2023/05/12 11:46:53;;;;;;;;;;;;;;;24.25;58.18;101738.94;5017728;28;19958;-71
2023/05/12 11:49:19;;;;;;;;;;;;;;;24.13;60.81;101740.47;5017796;28;19932;-72
2023/05/12 11:51:44;;;;;;;;;;;;;;;23.53;53.98;101745.78;4998979;28;19926;-70
2023/05/12 11:54:10;;;;;;;;;;;;;;;24.32;58.56;101730.81;4997540;28;20311;-70
2023/05/12 11:56:36;;;;;;;;;;;;;;;24.68;53.55;101740.16;5000949;28;19917;-71
2023/05/12 11:59:01;;;;;;;;;;;;;;;24.86;53.21;101731.53;4997599;28;20387;-70
2023/05/12 12:01:26;;;;;;;;;;;;;;;24.70;53.63;101738.06;5020301;28;20421;-72
2023/05/12 12:03:52;;;;;;;;;;;;;;;23.92;53.60;101732.94;5016691;28;19940;-74
2023/05/12 12:06:18;;;;;;;;;;;;;;;24.23;53.69;101738.28;5018465;28;19999;-71
2023/05/12 12:08:56;;;;;;;;;;;;;;;24.45;54.30;101735.66;4999422;28;19925;-70
2023/05/12 12:11:22;;;;;;;;;;;;;;;23.41;56.43;101752.75;5001976;28;20004;-70
2023/05/12 12:13:55;;;;;;;;;;;;;;;23.11;56.63;101750.66;5000525;28;19918;-70
2023/05/12 12:16:21;;;;;;;;;;;;;;;22.87;57.71;101751.69;5000753;28;19921;-69
2023/05/12 12:18:46;;;;;;;;;;;;;;;22.92;62.45;101761.06;5003178;28;19926;-70
2023/05/12 12:21:11;;;;;;;;;;;;;;;22.89;61.31;101766.88;4999756;28;19940;-72